sensor_id;sensor_type;location;lat;lon;timestamp;temperature;humidity
46898;DHT22;32646;50.958;6.258;2023-06-24T00:02:18;16.60;99.90
46898;DHT22;32646;50.958;6.258;2023-06-24T00:04:45;16.50;99.90
46898;DHT22;32646;50.958;6.258;2023-06-24T00:07:12;16.50;99.90
46898;DHT22;32646;50.958;6.258;2023-06-24T00:09:38;16.50;99.90
46898;DHT22;32646;50.958;6.258;2023-06-24T00:12:05;16.60;99.90
46898;DHT22;32646;50.958;6.258;2023-06-24T00:14:32;16.50;99.90
46898;DHT22;32646;50.958;6.258;2023-06-24T00:16:59;16.50;99.90
46898;DHT22;32646;50.958;6.258;2023-06-24T00:19:26;16.40;99.90
46898;DHT22;32646;50.958;6.258;2023-06-24T00:21:53;16.40;99.90
46898;DHT22;32646;50.958;6.258;2023-06-24T00:24:23;16.40;99.90
46898;DHT22;32646;50.958;6.258;2023-06-24T00:26:49;16.30;99.90
46898;DHT22;32646;50.958;6.258;2023-06-24T00:29:16;16.30;99.90
46898;DHT22;32646;50.958;6.258;2023-06-24T00:31:42;16.30;99.90
46898;DHT22;32646;50.958;6.258;2023-06-24T00:34:09;16.30;99.90
46898;DHT22;32646;50.958;6.258;2023-06-24T00:36:36;16.30;99.90
46898;DHT22;32646;50.958;6.258;2023-06-24T00:39:02;16.30;99.90
46898;DHT22;32646;50.958;6.258;2023-06-24T00:41:30;16.20;99.90
46898;DHT22;32646;50.958;6.258;2023-06-24T00:43:57;16.20;99.90
46898;DHT22;32646;50.958;6.258;2023-06-24T00:46:25;16.20;99.90
46898;DHT22;32646;50.958;6.258;2023-06-24T00:48:55;16.20;99.90
46898;DHT22;32646;50.958;6.258;2023-06-24T00:51:22;16.20;99.90
46898;DHT22;32646;50.958;6.258;2023-06-24T00:53:49;16.20;99.90
46898;DHT22;32646;50.958;6.258;2023-06-24T00:56:16;16.20;99.90
46898;DHT22;32646;50.958;6.258;2023-06-24T00:58:42;16.10;99.90
46898;DHT22;32646;50.958;6.258;2023-06-24T01:01:09;16.20;99.90
46898;DHT22;32646;50.958;6.258;2023-06-24T01:03:37;16.10;99.90
46898;DHT22;32646;50.958;6.258;2023-06-24T01:06:04;16.20;99.90
46898;DHT22;32646;50.958;6.258;2023-06-24T01:08:31;16.20;99.90
46898;DHT22;32646;50.958;6.258;2023-06-24T01:10:57;16.10;99.90
46898;DHT22;32646;50.958;6.258;2023-06-24T01:13:24;16.10;99.90
46898;DHT22;32646;50.958;6.258;2023-06-24T01:15:51;16.10;99.90
46898;DHT22;32646;50.958;6.258;2023-06-24T01:18:37;16.10;99.90
46898;DHT22;32646;50.958;6.258;2023-06-24T01:21:10;16.00;99.90
46898;DHT22;32646;50.958;6.258;2023-06-24T01:24:13;16.10;99.90
46898;DHT22;32646;50.958;6.258;2023-06-24T01:26:51;16.10;99.90
46898;DHT22;32646;50.958;6.258;2023-06-24T01:29:34;16.00;99.90
46898;DHT22;32646;50.958;6.258;2023-06-24T01:32:06;15.90;99.90
46898;DHT22;32646;50.958;6.258;2023-06-24T01:34:39;15.90;99.90
46898;DHT22;32646;50.958;6.258;2023-06-24T01:37:20;16.00;99.90
46898;DHT22;32646;50.958;6.258;2023-06-24T01:39:52;16.00;99.90
46898;DHT22;32646;50.958;6.258;2023-06-24T01:42:22;15.90;99.90
46898;DHT22;32646;50.958;6.258;2023-06-24T01:44:50;15.90;99.90
46898;DHT22;32646;50.958;6.258;2023-06-24T01:47:21;15.90;99.90
46898;DHT22;32646;50.958;6.258;2023-06-24T01:49:51;15.80;99.90
46898;DHT22;32646;50.958;6.258;2023-06-24T01:52:20;15.90;99.90
46898;DHT22;32646;50.958;6.258;2023-06-24T01:54:48;15.90;99.90
46898;DHT22;32646;50.958;6.258;2023-06-24T01:57:16;15.80;99.90
46898;DHT22;32646;50.958;6.258;2023-06-24T01:59:46;15.80;99.90
46898;DHT22;32646;50.958;6.258;2023-06-24T02:02:13;15.80;99.90
46898;DHT22;32646;50.958;6.258;2023-06-24T02:04:40;15.80;99.90
46898;DHT22;32646;50.958;6.258;2023-06-24T02:07:08;15.70;99.90
46898;DHT22;32646;50.958;6.258;2023-06-24T02:09:36;15.70;99.90
46898;DHT22;32646;50.958;6.258;2023-06-24T02:12:06;15.70;99.90
46898;DHT22;32646;50.958;6.258;2023-06-24T02:14:33;15.70;99.90
46898;DHT22;32646;50.958;6.258;2023-06-24T02:17:01;15.70;99.90
46898;DHT22;32646;50.958;6.258;2023-06-24T02:19:30;15.60;99.90
46898;DHT22;32646;50.958;6.258;2023-06-24T02:22:01;15.60;99.90
46898;DHT22;32646;50.958;6.258;2023-06-24T02:24:28;15.60;99.90
46898;DHT22;32646;50.958;6.258;2023-06-24T02:26:57;15.50;99.90
46898;DHT22;32646;50.958;6.258;2023-06-24T02:29:26;15.50;99.90
46898;DHT22;32646;50.958;6.258;2023-06-24T02:31:53;15.50;99.90
46898;DHT22;32646;50.958;6.258;2023-06-24T02:34:19;15.60;99.90
46898;DHT22;32646;50.958;6.258;2023-06-24T02:36:46;15.60;99.90
46898;DHT22;32646;50.958;6.258;2023-06-24T02:39:13;15.50;99.90
46898;DHT22;32646;50.958;6.258;2023-06-24T02:41:39;15.50;99.90
46898;DHT22;32646;50.958;6.258;2023-06-24T02:44:06;15.50;99.90
46898;DHT22;32646;50.958;6.258;2023-06-24T02:46:34;15.50;99.90
46898;DHT22;32646;50.958;6.258;2023-06-24T02:49:03;15.40;99.90
46898;DHT22;32646;50.958;6.258;2023-06-24T02:51:30;15.40;99.90
46898;DHT22;32646;50.958;6.258;2023-06-24T02:53:57;15.40;99.90
46898;DHT22;32646;50.958;6.258;2023-06-24T02:56:26;15.40;99.90
46898;DHT22;32646;50.958;6.258;2023-06-24T02:58:53;15.40;99.90
46898;DHT22;32646;50.958;6.258;2023-06-24T03:01:21;15.30;99.90
46898;DHT22;32646;50.958;6.258;2023-06-24T03:03:57;15.30;99.90
46898;DHT22;32646;50.958;6.258;2023-06-24T03:06:23;15.30;99.90
46898;DHT22;32646;50.958;6.258;2023-06-24T03:08:50;15.30;99.90
46898;DHT22;32646;50.958;6.258;2023-06-24T03:11:17;15.30;99.90
46898;DHT22;32646;50.958;6.258;2023-06-24T03:13:44;15.20;99.90
46898;DHT22;32646;50.958;6.258;2023-06-24T03:16:11;15.20;99.90
46898;DHT22;32646;50.958;6.258;2023-06-24T03:18:42;15.10;99.90
46898;DHT22;32646;50.958;6.258;2023-06-24T03:21:10;15.20;99.90
46898;DHT22;32646;50.958;6.258;2023-06-24T03:23:37;15.10;99.90
46898;DHT22;32646;50.958;6.258;2023-06-24T03:26:03;15.10;99.90
46898;DHT22;32646;50.958;6.258;2023-06-24T03:28:30;15.10;99.90
46898;DHT22;32646;50.958;6.258;2023-06-24T03:30:57;15.20;99.90
46898;DHT22;32646;50.958;6.258;2023-06-24T03:33:24;15.10;99.90
46898;DHT22;32646;50.958;6.258;2023-06-24T03:35:51;15.20;99.90
46898;DHT22;32646;50.958;6.258;2023-06-24T03:38:18;15.10;99.90
46898;DHT22;32646;50.958;6.258;2023-06-24T03:40:44;15.20;99.90
46898;DHT22;32646;50.958;6.258;2023-06-24T03:43:11;15.20;99.90
46898;DHT22;32646;50.958;6.258;2023-06-24T03:45:37;15.20;99.90
46898;DHT22;32646;50.958;6.258;2023-06-24T03:48:04;15.40;99.90
46898;DHT22;32646;50.958;6.258;2023-06-24T03:50:31;15.50;99.90
46898;DHT22;32646;50.958;6.258;2023-06-24T03:52:58;15.50;99.90
46898;DHT22;32646;50.958;6.258;2023-06-24T03:55:24;15.60;99.90
46898;DHT22;32646;50.958;6.258;2023-06-24T03:57:51;15.60;99.90
46898;DHT22;32646;50.958;6.258;2023-06-24T04:00:18;15.60;99.90
46898;DHT22;32646;50.958;6.258;2023-06-24T04:02:44;15.60;99.90
46898;DHT22;32646;50.958;6.258;2023-06-24T04:05:11;15.50;99.90
46898;DHT22;32646;50.958;6.258;2023-06-24T04:07:37;15.60;99.90
46898;DHT22;32646;50.958;6.258;2023-06-24T04:10:05;15.80;99.90
46898;DHT22;32646;50.958;6.258;2023-06-24T04:12:31;15.80;99.90
46898;DHT22;32646;50.958;6.258;2023-06-24T04:14:58;15.90;99.90
46898;DHT22;32646;50.958;6.258;2023-06-24T04:17:24;15.90;99.90
46898;DHT22;32646;50.958;6.258;2023-06-24T04:19:51;15.90;99.90
46898;DHT22;32646;50.958;6.258;2023-06-24T04:22:18;16.00;99.90
46898;DHT22;32646;50.958;6.258;2023-06-24T04:24:44;16.10;99.90
46898;DHT22;32646;50.958;6.258;2023-06-24T04:27:11;16.10;99.90
46898;DHT22;32646;50.958;6.258;2023-06-24T04:29:37;16.20;99.90
46898;DHT22;32646;50.958;6.258;2023-06-24T04:32:04;16.20;99.90
46898;DHT22;32646;50.958;6.258;2023-06-24T04:34:31;16.30;99.90
46898;DHT22;32646;50.958;6.258;2023-06-24T04:36:57;16.30;99.90
46898;DHT22;32646;50.958;6.258;2023-06-24T04:39:24;16.40;99.90
46898;DHT22;32646;50.958;6.258;2023-06-24T04:41:50;16.40;99.90
46898;DHT22;32646;50.958;6.258;2023-06-24T04:44:17;16.50;99.90
46898;DHT22;32646;50.958;6.258;2023-06-24T04:46:43;16.70;99.90
46898;DHT22;32646;50.958;6.258;2023-06-24T04:49:10;16.70;99.90
46898;DHT22;32646;50.958;6.258;2023-06-24T04:51:37;16.80;99.90
46898;DHT22;32646;50.958;6.258;2023-06-24T04:54:04;17.00;99.90
46898;DHT22;32646;50.958;6.258;2023-06-24T04:56:30;17.10;99.90
46898;DHT22;32646;50.958;6.258;2023-06-24T04:58:57;17.30;99.90
46898;DHT22;32646;50.958;6.258;2023-06-24T05:01:23;17.30;99.90
46898;DHT22;32646;50.958;6.258;2023-06-24T05:03:50;17.40;99.90
46898;DHT22;32646;50.958;6.258;2023-06-24T05:06:17;17.50;99.90
46898;DHT22;32646;50.958;6.258;2023-06-24T05:08:43;17.60;99.90
46898;DHT22;32646;50.958;6.258;2023-06-24T05:11:10;17.60;99.90
46898;DHT22;32646;50.958;6.258;2023-06-24T05:13:37;17.70;99.90
46898;DHT22;32646;50.958;6.258;2023-06-24T05:16:04;17.80;99.90
46898;DHT22;32646;50.958;6.258;2023-06-24T05:18:30;17.90;99.90
46898;DHT22;32646;50.958;6.258;2023-06-24T05:20:57;17.90;99.90
46898;DHT22;32646;50.958;6.258;2023-06-24T05:23:24;18.00;99.90
46898;DHT22;32646;50.958;6.258;2023-06-24T05:25:50;18.10;99.90
46898;DHT22;32646;50.958;6.258;2023-06-24T05:28:17;18.20;99.90
46898;DHT22;32646;50.958;6.258;2023-06-24T05:30:45;18.30;99.90
46898;DHT22;32646;50.958;6.258;2023-06-24T05:33:11;18.30;99.90
46898;DHT22;32646;50.958;6.258;2023-06-24T05:35:38;18.40;99.90
46898;DHT22;32646;50.958;6.258;2023-06-24T05:38:05;18.50;99.90
46898;DHT22;32646;50.958;6.258;2023-06-24T05:40:31;18.60;99.90
46898;DHT22;32646;50.958;6.258;2023-06-24T05:42:58;18.60;99.90
46898;DHT22;32646;50.958;6.258;2023-06-24T05:45:25;18.70;99.90
46898;DHT22;32646;50.958;6.258;2023-06-24T05:47:51;18.80;99.90
46898;DHT22;32646;50.958;6.258;2023-06-24T05:50:18;19.00;99.90
46898;DHT22;32646;50.958;6.258;2023-06-24T05:52:45;19.00;99.90
46898;DHT22;32646;50.958;6.258;2023-06-24T05:55:11;19.10;99.90
46898;DHT22;32646;50.958;6.258;2023-06-24T05:57:38;19.10;99.90
46898;DHT22;32646;50.958;6.258;2023-06-24T06:00:05;19.20;99.90
46898;DHT22;32646;50.958;6.258;2023-06-24T06:02:32;19.30;99.90
46898;DHT22;32646;50.958;6.258;2023-06-24T06:04:59;19.30;99.90
46898;DHT22;32646;50.958;6.258;2023-06-24T06:07:25;19.40;99.90
46898;DHT22;32646;50.958;6.258;2023-06-24T06:09:52;19.50;99.90
46898;DHT22;32646;50.958;6.258;2023-06-24T06:12:18;19.60;99.90
46898;DHT22;32646;50.958;6.258;2023-06-24T06:14:45;19.50;99.90
46898;DHT22;32646;50.958;6.258;2023-06-24T06:17:13;19.50;99.90
46898;DHT22;32646;50.958;6.258;2023-06-24T06:19:40;19.50;99.90
46898;DHT22;32646;50.958;6.258;2023-06-24T06:22:07;19.60;99.90
46898;DHT22;32646;50.958;6.258;2023-06-24T06:24:34;19.70;99.90
46898;DHT22;32646;50.958;6.258;2023-06-24T06:27:01;19.70;99.90
46898;DHT22;32646;50.958;6.258;2023-06-24T06:29:27;19.80;99.90
46898;DHT22;32646;50.958;6.258;2023-06-24T06:31:54;20.00;99.90
46898;DHT22;32646;50.958;6.258;2023-06-24T06:34:20;19.90;99.90
46898;DHT22;32646;50.958;6.258;2023-06-24T06:36:47;20.00;99.90
46898;DHT22;32646;50.958;6.258;2023-06-24T06:39:14;20.10;99.90
46898;DHT22;32646;50.958;6.258;2023-06-24T06:41:40;20.10;99.90
46898;DHT22;32646;50.958;6.258;2023-06-24T06:44:07;20.10;99.90
46898;DHT22;32646;50.958;6.258;2023-06-24T06:46:34;20.30;99.90
46898;DHT22;32646;50.958;6.258;2023-06-24T06:49:00;20.30;99.90
46898;DHT22;32646;50.958;6.258;2023-06-24T06:51:27;20.30;99.90
46898;DHT22;32646;50.958;6.258;2023-06-24T06:53:53;20.30;99.90
46898;DHT22;32646;50.958;6.258;2023-06-24T06:56:23;20.40;99.90
46898;DHT22;32646;50.958;6.258;2023-06-24T06:58:51;20.60;99.90
46898;DHT22;32646;50.958;6.258;2023-06-24T07:01:20;20.60;99.90
46898;DHT22;32646;50.958;6.258;2023-06-24T07:03:49;20.70;99.90
46898;DHT22;32646;50.958;6.258;2023-06-24T07:06:18;20.80;99.90
46898;DHT22;32646;50.958;6.258;2023-06-24T07:08:45;20.80;99.90
46898;DHT22;32646;50.958;6.258;2023-06-24T07:11:11;20.90;99.90
46898;DHT22;32646;50.958;6.258;2023-06-24T07:13:38;20.90;99.90
46898;DHT22;32646;50.958;6.258;2023-06-24T07:16:05;21.00;99.90
46898;DHT22;32646;50.958;6.258;2023-06-24T07:18:31;20.90;99.90
46898;DHT22;32646;50.958;6.258;2023-06-24T07:21:00;21.00;99.90
46898;DHT22;32646;50.958;6.258;2023-06-24T07:23:27;21.20;99.90
46898;DHT22;32646;50.958;6.258;2023-06-24T07:25:53;21.30;99.50
46898;DHT22;32646;50.958;6.258;2023-06-24T07:28:20;21.30;99.90
46898;DHT22;32646;50.958;6.258;2023-06-24T07:30:46;21.30;99.40
46898;DHT22;32646;50.958;6.258;2023-06-24T07:33:13;21.40;99.50
46898;DHT22;32646;50.958;6.258;2023-06-24T07:35:40;21.60;98.30
46898;DHT22;32646;50.958;6.258;2023-06-24T07:38:06;21.60;99.90
46898;DHT22;32646;50.958;6.258;2023-06-24T07:40:33;21.80;99.90
46898;DHT22;32646;50.958;6.258;2023-06-24T07:42:59;21.80;97.80
46898;DHT22;32646;50.958;6.258;2023-06-24T07:45:26;21.80;96.30
46898;DHT22;32646;50.958;6.258;2023-06-24T07:47:52;21.90;99.90
46898;DHT22;32646;50.958;6.258;2023-06-24T07:50:19;22.00;96.20
46898;DHT22;32646;50.958;6.258;2023-06-24T07:52:46;22.10;91.50
46898;DHT22;32646;50.958;6.258;2023-06-24T07:55:13;22.10;89.30
46898;DHT22;32646;50.958;6.258;2023-06-24T07:57:40;22.20;92.70
46898;DHT22;32646;50.958;6.258;2023-06-24T08:00:11;22.30;91.50
46898;DHT22;32646;50.958;6.258;2023-06-24T08:02:38;22.50;95.70
46898;DHT22;32646;50.958;6.258;2023-06-24T08:05:05;22.70;89.00
46898;DHT22;32646;50.958;6.258;2023-06-24T08:07:31;22.80;78.30
46898;DHT22;32646;50.958;6.258;2023-06-24T08:10:06;22.90;82.00
46898;DHT22;32646;50.958;6.258;2023-06-24T08:12:33;23.20;81.20
46898;DHT22;32646;50.958;6.258;2023-06-24T08:14:59;23.90;73.60
46898;DHT22;32646;50.958;6.258;2023-06-24T08:17:26;24.60;76.60
46898;DHT22;32646;50.958;6.258;2023-06-24T08:19:53;25.50;69.50
46898;DHT22;32646;50.958;6.258;2023-06-24T08:22:19;25.80;71.30
46898;DHT22;32646;50.958;6.258;2023-06-24T08:24:46;26.10;71.50
46898;DHT22;32646;50.958;6.258;2023-06-24T08:27:12;26.80;65.40
46898;DHT22;32646;50.958;6.258;2023-06-24T08:29:39;26.60;62.50
46898;DHT22;32646;50.958;6.258;2023-06-24T08:32:06;26.80;60.90
46898;DHT22;32646;50.958;6.258;2023-06-24T08:34:33;27.10;68.00
46898;DHT22;32646;50.958;6.258;2023-06-24T08:37:00;27.30;68.10
46898;DHT22;32646;50.958;6.258;2023-06-24T08:39:26;27.70;64.90
46898;DHT22;32646;50.958;6.258;2023-06-24T08:41:53;27.70;61.60
46898;DHT22;32646;50.958;6.258;2023-06-24T08:44:23;27.80;66.70
46898;DHT22;32646;50.958;6.258;2023-06-24T08:46:50;27.90;64.10
46898;DHT22;32646;50.958;6.258;2023-06-24T08:52:02;28.40;61.60
46898;DHT22;32646;50.958;6.258;2023-06-24T08:54:34;28.60;57.50
46898;DHT22;32646;50.958;6.258;2023-06-24T08:57:02;28.40;57.40
46898;DHT22;32646;50.958;6.258;2023-06-24T08:59:29;28.60;62.10
46898;DHT22;32646;50.958;6.258;2023-06-24T09:01:55;27.90;61.20
46898;DHT22;32646;50.958;6.258;2023-06-24T09:04:22;27.30;60.00
46898;DHT22;32646;50.958;6.258;2023-06-24T09:06:49;27.20;61.20
46898;DHT22;32646;50.958;6.258;2023-06-24T09:09:22;27.10;60.50
46898;DHT22;32646;50.958;6.258;2023-06-24T09:11:57;27.20;60.50
46898;DHT22;32646;50.958;6.258;2023-06-24T09:14:25;27.60;58.20
46898;DHT22;32646;50.958;6.258;2023-06-24T09:16:54;27.60;56.60
46898;DHT22;32646;50.958;6.258;2023-06-24T09:19:26;27.50;61.60
46898;DHT22;32646;50.958;6.258;2023-06-24T09:21:53;27.50;56.90
46898;DHT22;32646;50.958;6.258;2023-06-24T09:24:19;28.00;57.80
46898;DHT22;32646;50.958;6.258;2023-06-24T09:26:46;28.30;52.10
46898;DHT22;32646;50.958;6.258;2023-06-24T09:29:14;28.20;51.80
46898;DHT22;32646;50.958;6.258;2023-06-24T09:31:50;28.20;51.30
46898;DHT22;32646;50.958;6.258;2023-06-24T09:34:19;27.90;52.10
46898;DHT22;32646;50.958;6.258;2023-06-24T09:36:51;28.00;53.60
46898;DHT22;32646;50.958;6.258;2023-06-24T09:39:21;28.20;50.60
46898;DHT22;32646;50.958;6.258;2023-06-24T09:42:00;28.70;49.60
46898;DHT22;32646;50.958;6.258;2023-06-24T09:44:27;28.50;49.60
46898;DHT22;32646;50.958;6.258;2023-06-24T09:46:55;28.40;49.00
46898;DHT22;32646;50.958;6.258;2023-06-24T09:49:24;28.50;52.30
46898;DHT22;32646;50.958;6.258;2023-06-24T09:52:01;29.00;55.00
46898;DHT22;32646;50.958;6.258;2023-06-24T09:54:29;29.10;47.90
46898;DHT22;32646;50.958;6.258;2023-06-24T09:57:02;28.00;48.40
46898;DHT22;32646;50.958;6.258;2023-06-24T09:59:30;28.20;53.10
46898;DHT22;32646;50.958;6.258;2023-06-24T10:01:57;28.80;47.60
46898;DHT22;32646;50.958;6.258;2023-06-24T10:04:28;28.70;52.20
46898;DHT22;32646;50.958;6.258;2023-06-24T10:06:58;28.80;47.30
46898;DHT22;32646;50.958;6.258;2023-06-24T10:09:26;28.40;46.30
46898;DHT22;32646;50.958;6.258;2023-06-24T10:11:53;28.60;48.00
46898;DHT22;32646;50.958;6.258;2023-06-24T10:14:19;28.10;42.90
46898;DHT22;32646;50.958;6.258;2023-06-24T10:16:46;28.80;52.60
46898;DHT22;32646;50.958;6.258;2023-06-24T10:19:19;28.90;50.00
46898;DHT22;32646;50.958;6.258;2023-06-24T10:21:53;28.80;41.60
46898;DHT22;32646;50.958;6.258;2023-06-24T10:24:37;28.50;43.40
46898;DHT22;32646;50.958;6.258;2023-06-24T10:27:09;28.90;50.70
46898;DHT22;32646;50.958;6.258;2023-06-24T10:29:39;28.50;43.20
46898;DHT22;32646;50.958;6.258;2023-06-24T10:32:10;28.00;43.30
46898;DHT22;32646;50.958;6.258;2023-06-24T10:37:17;28.90;45.10
46898;DHT22;32646;50.958;6.258;2023-06-24T10:39:45;29.10;42.80
46898;DHT22;32646;50.958;6.258;2023-06-24T10:42:40;28.90;46.70
46898;DHT22;32646;50.958;6.258;2023-06-24T10:47:50;27.90;38.80
46898;DHT22;32646;50.958;6.258;2023-06-24T10:50:20;28.10;44.50
46898;DHT22;32646;50.958;6.258;2023-06-24T10:52:48;28.20;44.50
46898;DHT22;32646;50.958;6.258;2023-06-24T10:55:16;28.30;50.80
46898;DHT22;32646;50.958;6.258;2023-06-24T10:57:44;27.80;43.00
46898;DHT22;32646;50.958;6.258;2023-06-24T11:00:12;28.30;51.50
46898;DHT22;32646;50.958;6.258;2023-06-24T11:02:41;28.30;40.70
46898;DHT22;32646;50.958;6.258;2023-06-24T11:05:11;28.20;42.70
46898;DHT22;32646;50.958;6.258;2023-06-24T11:07:38;28.40;44.60
46898;DHT22;32646;50.958;6.258;2023-06-24T11:10:15;28.40;42.40
46898;DHT22;32646;50.958;6.258;2023-06-24T11:12:43;28.00;41.50
46898;DHT22;32646;50.958;6.258;2023-06-24T11:15:11;28.30;45.50
46898;DHT22;32646;50.958;6.258;2023-06-24T11:17:39;28.90;47.20
46898;DHT22;32646;50.958;6.258;2023-06-24T11:20:13;28.70;42.90
46898;DHT22;32646;50.958;6.258;2023-06-24T11:22:41;29.10;46.10
46898;DHT22;32646;50.958;6.258;2023-06-24T11:25:21;29.50;43.20
46898;DHT22;32646;50.958;6.258;2023-06-24T11:27:50;29.10;44.90
46898;DHT22;32646;50.958;6.258;2023-06-24T11:30:17;29.30;42.00
46898;DHT22;32646;50.958;6.258;2023-06-24T11:32:44;29.50;37.50
46898;DHT22;32646;50.958;6.258;2023-06-24T11:35:13;29.70;39.20
46898;DHT22;32646;50.958;6.258;2023-06-24T11:38:01;29.90;40.70
46898;DHT22;32646;50.958;6.258;2023-06-24T11:40:27;29.50;40.90
46898;DHT22;32646;50.958;6.258;2023-06-24T11:42:53;30.20;39.70
46898;DHT22;32646;50.958;6.258;2023-06-24T11:45:21;30.90;40.30
46898;DHT22;32646;50.958;6.258;2023-06-24T11:47:48;31.10;38.40
46898;DHT22;32646;50.958;6.258;2023-06-24T11:50:15;31.30;35.60
46898;DHT22;32646;50.958;6.258;2023-06-24T11:52:46;31.00;33.70
46898;DHT22;32646;50.958;6.258;2023-06-24T11:58:02;31.30;35.70
46898;DHT22;32646;50.958;6.258;2023-06-24T12:00:31;31.60;38.40
46898;DHT22;32646;50.958;6.258;2023-06-24T12:03:04;31.60;37.70
46898;DHT22;32646;50.958;6.258;2023-06-24T12:05:36;32.00;36.80
46898;DHT22;32646;50.958;6.258;2023-06-24T12:08:05;32.10;37.50
46898;DHT22;32646;50.958;6.258;2023-06-24T12:10:34;32.50;38.80
46898;DHT22;32646;50.958;6.258;2023-06-24T12:13:03;32.50;33.10
46898;DHT22;32646;50.958;6.258;2023-06-24T12:15:29;32.30;34.20
46898;DHT22;32646;50.958;6.258;2023-06-24T12:17:56;31.60;29.50
46898;DHT22;32646;50.958;6.258;2023-06-24T12:20:24;31.40;33.60
46898;DHT22;32646;50.958;6.258;2023-06-24T12:22:55;31.70;29.00
46898;DHT22;32646;50.958;6.258;2023-06-24T12:25:24;31.60;32.60
46898;DHT22;32646;50.958;6.258;2023-06-24T12:27:51;31.20;31.00
46898;DHT22;32646;50.958;6.258;2023-06-24T12:30:17;31.30;28.30
46898;DHT22;32646;50.958;6.258;2023-06-24T12:32:44;31.00;31.20
46898;DHT22;32646;50.958;6.258;2023-06-24T12:35:11;31.20;35.30
46898;DHT22;32646;50.958;6.258;2023-06-24T12:37:38;31.60;37.10
46898;DHT22;32646;50.958;6.258;2023-06-24T12:40:05;31.60;33.40
46898;DHT22;32646;50.958;6.258;2023-06-24T12:42:33;32.20;35.70
46898;DHT22;32646;50.958;6.258;2023-06-24T12:44:59;32.60;29.60
46898;DHT22;32646;50.958;6.258;2023-06-24T12:47:26;32.00;33.10
46898;DHT22;32646;50.958;6.258;2023-06-24T12:49:53;31.40;31.80
46898;DHT22;32646;50.958;6.258;2023-06-24T12:52:20;31.50;30.10
46898;DHT22;32646;50.958;6.258;2023-06-24T12:54:46;31.30;33.70
46898;DHT22;32646;50.958;6.258;2023-06-24T12:57:14;30.80;33.20
46898;DHT22;32646;50.958;6.258;2023-06-24T12:59:41;30.80;36.70
46898;DHT22;32646;50.958;6.258;2023-06-24T13:02:08;31.30;30.00
46898;DHT22;32646;50.958;6.258;2023-06-24T13:04:35;31.20;29.60
46898;DHT22;32646;50.958;6.258;2023-06-24T13:07:01;31.70;32.50
46898;DHT22;32646;50.958;6.258;2023-06-24T13:09:30;31.60;26.50
46898;DHT22;32646;50.958;6.258;2023-06-24T13:11:57;31.10;29.50
46898;DHT22;32646;50.958;6.258;2023-06-24T13:14:23;31.20;31.00
46898;DHT22;32646;50.958;6.258;2023-06-24T13:16:50;31.30;29.00
46898;DHT22;32646;50.958;6.258;2023-06-24T13:19:17;31.40;31.20
46898;DHT22;32646;50.958;6.258;2023-06-24T13:21:43;30.80;27.50
46898;DHT22;32646;50.958;6.258;2023-06-24T13:24:10;31.30;30.60
46898;DHT22;32646;50.958;6.258;2023-06-24T13:26:36;31.00;33.40
46898;DHT22;32646;50.958;6.258;2023-06-24T13:29:03;31.30;33.10
46898;DHT22;32646;50.958;6.258;2023-06-24T13:31:30;31.20;28.10
46898;DHT22;32646;50.958;6.258;2023-06-24T13:33:56;31.10;32.40
46898;DHT22;32646;50.958;6.258;2023-06-24T13:36:37;30.50;26.40
46898;DHT22;32646;50.958;6.258;2023-06-24T13:39:05;30.50;26.00
46898;DHT22;32646;50.958;6.258;2023-06-24T13:41:32;31.10;29.70
46898;DHT22;32646;50.958;6.258;2023-06-24T13:44:03;31.60;33.20
46898;DHT22;32646;50.958;6.258;2023-06-24T13:46:31;31.90;26.50
46898;DHT22;32646;50.958;6.258;2023-06-24T13:49:00;32.00;31.70
46898;DHT22;32646;50.958;6.258;2023-06-24T13:51:32;32.10;30.10
46898;DHT22;32646;50.958;6.258;2023-06-24T13:53:58;32.40;32.50
46898;DHT22;32646;50.958;6.258;2023-06-24T13:56:25;32.30;31.00
46898;DHT22;32646;50.958;6.258;2023-06-24T13:58:53;32.20;30.00
46898;DHT22;32646;50.958;6.258;2023-06-24T14:01:20;32.20;31.20
46898;DHT22;32646;50.958;6.258;2023-06-24T14:03:48;32.10;29.80
46898;DHT22;32646;50.958;6.258;2023-06-24T14:06:17;32.00;30.00
46898;DHT22;32646;50.958;6.258;2023-06-24T14:08:44;31.70;30.00
46898;DHT22;32646;50.958;6.258;2023-06-24T14:11:17;30.60;27.70
46898;DHT22;32646;50.958;6.258;2023-06-24T14:13:44;30.90;29.00
46898;DHT22;32646;50.958;6.258;2023-06-24T14:16:11;31.10;29.10
46898;DHT22;32646;50.958;6.258;2023-06-24T14:18:38;31.60;31.70
46898;DHT22;32646;50.958;6.258;2023-06-24T14:21:06;31.90;32.00
46898;DHT22;32646;50.958;6.258;2023-06-24T14:23:33;31.80;31.80
46898;DHT22;32646;50.958;6.258;2023-06-24T14:26:00;30.90;32.30
46898;DHT22;32646;50.958;6.258;2023-06-24T14:28:30;31.20;33.20
46898;DHT22;32646;50.958;6.258;2023-06-24T14:30:57;31.30;31.70
46898;DHT22;32646;50.958;6.258;2023-06-24T14:33:23;31.60;31.10
46898;DHT22;32646;50.958;6.258;2023-06-24T14:35:50;31.60;27.70
46898;DHT22;32646;50.958;6.258;2023-06-24T14:38:17;31.60;34.90
46898;DHT22;32646;50.958;6.258;2023-06-24T14:40:43;31.70;32.10
46898;DHT22;32646;50.958;6.258;2023-06-24T14:43:10;31.60;27.40
46898;DHT22;32646;50.958;6.258;2023-06-24T14:45:37;31.50;30.40
46898;DHT22;32646;50.958;6.258;2023-06-24T14:48:03;31.60;30.10
46898;DHT22;32646;50.958;6.258;2023-06-24T14:50:30;31.60;27.50
46898;DHT22;32646;50.958;6.258;2023-06-24T14:52:57;31.20;32.10
46898;DHT22;32646;50.958;6.258;2023-06-24T14:55:24;31.10;28.70
46898;DHT22;32646;50.958;6.258;2023-06-24T14:57:50;31.20;30.10
46898;DHT22;32646;50.958;6.258;2023-06-24T15:00:17;31.30;34.40
46898;DHT22;32646;50.958;6.258;2023-06-24T15:02:44;31.30;28.90
46898;DHT22;32646;50.958;6.258;2023-06-24T15:05:13;31.30;30.30
46898;DHT22;32646;50.958;6.258;2023-06-24T15:07:40;31.10;31.00
46898;DHT22;32646;50.958;6.258;2023-06-24T15:10:07;31.30;29.00
46898;DHT22;32646;50.958;6.258;2023-06-24T15:12:36;31.40;28.70
46898;DHT22;32646;50.958;6.258;2023-06-24T15:15:03;31.30;29.90
46898;DHT22;32646;50.958;6.258;2023-06-24T15:17:32;31.30;30.40
46898;DHT22;32646;50.958;6.258;2023-06-24T15:20:00;31.30;27.50
46898;DHT22;32646;50.958;6.258;2023-06-24T15:22:27;31.30;28.70
46898;DHT22;32646;50.958;6.258;2023-06-24T15:24:53;31.30;32.10
46898;DHT22;32646;50.958;6.258;2023-06-24T15:27:20;31.20;29.80
46898;DHT22;32646;50.958;6.258;2023-06-24T15:29:47;30.80;31.10
46898;DHT22;32646;50.958;6.258;2023-06-24T15:32:13;30.80;33.30
46898;DHT22;32646;50.958;6.258;2023-06-24T15:34:40;30.60;30.60
46898;DHT22;32646;50.958;6.258;2023-06-24T15:37:07;30.60;34.40
46898;DHT22;32646;50.958;6.258;2023-06-24T15:39:33;30.80;33.00
46898;DHT22;32646;50.958;6.258;2023-06-24T15:42:00;30.60;33.00
46898;DHT22;32646;50.958;6.258;2023-06-24T15:44:27;30.60;30.50
46898;DHT22;32646;50.958;6.258;2023-06-24T15:46:54;30.60;33.30